createdAt,value
2019-02-07T00:00:55.246Z,0
2019-02-07T00:01:55.284Z,0
2019-02-07T00:02:55.459Z,0
2019-02-07T00:03:55.455Z,0
2019-02-07T00:04:55.424Z,0
2019-02-07T00:05:56.519Z,0
2019-02-07T00:06:57.176Z,0
2019-02-07T00:07:54.889Z,0
2019-02-07T00:08:55.401Z,0
2019-02-07T00:09:55.605Z,0
2019-02-07T00:10:55.319Z,0
2019-02-07T00:11:55.585Z,0
2019-02-07T00:12:55.787Z,0
2019-02-07T00:13:55.621Z,0
2019-02-07T00:14:55.281Z,0
2019-02-07T00:15:55.309Z,0
2019-02-07T00:16:54.783Z,0
2019-02-07T00:17:55.500Z,0
2019-02-07T00:18:55.254Z,0
2019-02-07T00:19:55.005Z,0
2019-02-07T00:20:55.917Z,0
2019-02-07T00:21:54.967Z,0
2019-02-07T00:22:55.188Z,0
2019-02-07T00:23:55.234Z,0
2019-02-07T00:24:55.217Z,0
2019-02-07T00:25:55.401Z,0
2019-02-07T00:26:55.130Z,0
2019-02-07T00:27:54.857Z,0
2019-02-07T00:28:55.828Z,0
2019-02-07T00:29:54.853Z,0
2019-02-07T00:30:55.108Z,0
2019-02-07T00:31:55.311Z,0
2019-02-07T00:32:55.087Z,0
2019-02-07T00:33:55.056Z,0
2019-02-07T00:34:55.126Z,0
2019-02-07T00:35:55.030Z,0
2019-02-07T00:36:55.877Z,0
2019-02-07T00:37:55.242Z,0
2019-02-07T00:38:54.710Z,0
2019-02-07T00:39:54.720Z,0
2019-02-07T00:40:55.186Z,0
2019-02-07T00:41:55.198Z,0
2019-02-07T00:42:54.437Z,0
2019-02-07T00:43:54.914Z,0
2019-02-07T00:45:00.728Z,0
2019-02-07T00:45:54.878Z,0
2019-02-07T00:46:55.123Z,0
2019-02-07T00:47:55.112Z,0
2019-02-07T00:48:55.088Z,0
2019-02-07T00:49:54.829Z,0
2019-02-07T00:50:55.079Z,0
2019-02-07T00:51:55.349Z,0
2019-02-07T00:52:55.179Z,0
2019-02-07T00:53:55.028Z,0
2019-02-07T00:54:54.528Z,0
2019-02-07T00:55:54.759Z,0
2019-02-07T00:56:54.511Z,0
2019-02-07T00:57:54.496Z,0
2019-02-07T00:58:55.030Z,0
2019-02-07T00:59:55.246Z,0
2019-02-07T01:00:54.701Z,0
2019-02-07T01:01:54.907Z,0
2019-02-07T01:02:54.423Z,0
2019-02-07T01:03:54.400Z,0
2019-02-07T01:04:54.966Z,0
2019-02-07T01:05:54.868Z,0
2019-02-07T01:06:54.851Z,0
2019-02-07T01:07:55.237Z,0
2019-02-07T01:08:54.816Z,0
2019-02-07T01:09:54.826Z,0
2019-02-07T01:10:54.529Z,0
2019-02-07T01:11:54.528Z,0
2019-02-07T01:12:54.269Z,0
2019-02-07T01:13:54.262Z,0
2019-02-07T01:15:04.328Z,0
2019-02-07T01:15:54.834Z,0
2019-02-07T01:16:54.470Z,0
2019-02-07T01:17:54.208Z,0
2019-02-07T01:18:54.737Z,0
2019-02-07T01:19:54.423Z,0
2019-02-07T01:20:54.159Z,0
2019-02-07T01:21:54.395Z,0
2019-02-07T01:22:54.402Z,0
2019-02-07T01:23:54.773Z,0
2019-02-07T01:24:54.592Z,0
2019-02-07T01:25:54.357Z,0
2019-02-07T01:26:54.690Z,0
2019-02-07T01:27:54.433Z,0
2019-02-07T01:28:54.042Z,0
2019-02-07T01:29:54.530Z,0
2019-02-07T01:30:54.871Z,0
2019-02-07T01:31:54.256Z,0
2019-02-07T01:32:54.270Z,0
2019-02-07T01:33:54.226Z,0
2019-02-07T01:34:54.209Z,0
2019-02-07T01:35:53.952Z,0
2019-02-07T01:36:54.445Z,0
2019-02-07T01:37:54.189Z,0
2019-02-07T01:38:54.679Z,0
2019-02-07T01:39:54.144Z,0
2019-02-07T01:40:54.380Z,0
2019-02-07T01:41:54.180Z,0
2019-02-07T01:42:55.675Z,0
2019-02-07T01:43:54.337Z,0
2019-02-07T01:44:54.338Z,0
2019-02-07T01:45:53.995Z,0
2019-02-07T01:46:54.595Z,0
2019-02-07T01:47:54.043Z,0
2019-02-07T01:48:54.284Z,0
2019-02-07T01:49:54.266Z,0
2019-02-07T01:50:53.756Z,0
2019-02-07T01:51:54.036Z,0
2019-02-07T01:52:53.978Z,0
2019-02-07T01:53:54.039Z,0
2019-02-07T01:54:54.269Z,0
2019-02-07T01:55:54.158Z,0
2019-02-07T01:56:54.241Z,0
2019-02-07T01:57:53.892Z,0
2019-02-07T01:58:53.874Z,0
2019-02-07T01:59:53.846Z,0
2019-02-07T02:00:54.092Z,0
2019-02-07T02:01:55.582Z,0
2019-02-07T02:02:53.954Z,0
2019-02-07T02:03:54.069Z,0
2019-02-07T02:04:54.023Z,0
2019-02-07T02:05:54.018Z,0
2019-02-07T02:06:53.762Z,0
2019-02-07T02:07:54.011Z,0
2019-02-07T02:08:54.144Z,0
2019-02-07T02:09:54.234Z,0
2019-02-07T02:10:53.991Z,0
2019-02-07T02:11:53.992Z,0
2019-02-07T02:12:53.917Z,0
2019-02-07T02:13:53.954Z,0
2019-02-07T02:14:53.649Z,0
2019-02-07T02:15:53.882Z,0
2019-02-07T02:16:54.351Z,0
2019-02-07T02:17:53.341Z,0
2019-02-07T02:18:53.574Z,0
2019-02-07T02:19:53.554Z,0
2019-02-07T02:20:53.798Z,0
2019-02-07T02:21:53.782Z,0
2019-02-07T02:22:53.875Z,0
2019-02-07T02:23:53.011Z,0
2019-02-07T02:24:54.639Z,0
2019-02-07T02:25:53.477Z,0
2019-02-07T02:26:53.230Z,0
2019-02-07T02:27:53.700Z,0
2019-02-07T02:28:53.201Z,0
2019-02-07T02:29:53.250Z,0
2019-02-07T02:30:53.401Z,0
2019-02-07T02:31:53.484Z,0
2019-02-07T02:32:54.384Z,0
2019-02-07T02:33:53.750Z,0
2019-02-07T02:34:53.588Z,0
2019-02-07T02:35:53.590Z,0
2019-02-07T02:36:53.408Z,0
2019-02-07T02:37:53.549Z,0
2019-02-07T02:38:53.310Z,0
2019-02-07T02:39:54.054Z,0
2019-02-07T02:40:53.508Z,0
2019-02-07T02:41:53.009Z,0
2019-02-07T02:42:53.569Z,0
2019-02-07T02:43:53.034Z,0
2019-02-07T02:44:53.243Z,0
2019-02-07T02:45:53.190Z,0
2019-02-07T02:46:53.196Z,0
2019-02-07T02:47:54.022Z,0
2019-02-07T02:48:53.195Z,0
2019-02-07T02:49:53.418Z,0
2019-02-07T02:50:53.381Z,0
2019-02-07T02:51:53.380Z,0
2019-02-07T02:52:53.347Z,0
2019-02-07T02:53:53.121Z,0
2019-02-07T02:54:53.072Z,0
2019-02-07T02:55:53.432Z,0
2019-02-07T02:56:53.298Z,0
2019-02-07T02:57:53.053Z,0
2019-02-07T02:58:52.766Z,0
2019-02-07T02:59:53.073Z,0
2019-02-07T03:00:53.003Z,0
2019-02-07T03:01:52.752Z,0
2019-02-07T03:02:53.236Z,0
2019-02-07T03:03:53.305Z,0
2019-02-07T03:04:52.949Z,0
2019-02-07T03:05:53.172Z,0
2019-02-07T03:06:52.902Z,0
2019-02-07T03:07:52.802Z,0
2019-02-07T03:08:52.892Z,0
2019-02-07T03:09:52.856Z,0
2019-02-07T03:10:53.607Z,0
2019-02-07T03:11:53.107Z,0
2019-02-07T03:12:52.694Z,0
2019-02-07T03:13:52.801Z,0
2019-02-07T03:14:52.790Z,0
2019-02-07T03:15:56.838Z,0
2019-02-07T03:16:53.057Z,0
2019-02-07T03:17:52.750Z,0
2019-02-07T03:18:53.104Z,0
2019-02-07T03:19:52.520Z,0
2019-02-07T03:20:52.490Z,0
2019-02-07T03:21:53.005Z,0
2019-02-07T03:22:52.695Z,0
2019-02-07T03:23:52.981Z,0
2019-02-07T03:24:52.682Z,0
2019-02-07T03:25:52.772Z,0
2019-02-07T03:26:52.621Z,0
2019-02-07T03:27:52.631Z,0
2019-02-07T03:28:52.352Z,0
2019-02-07T03:29:52.110Z,0
2019-02-07T03:30:52.943Z,0
2019-02-07T03:31:52.820Z,0
2019-02-07T03:32:52.596Z,0
2019-02-07T03:33:53.091Z,0
2019-02-07T03:34:52.561Z,0
2019-02-07T03:35:52.249Z,0
2019-02-07T03:36:52.804Z,0
2019-02-07T03:37:52.205Z,0
2019-02-07T03:38:51.950Z,0
2019-02-07T03:39:52.208Z,0
2019-02-07T03:40:52.443Z,0
2019-02-07T03:41:52.659Z,0
2019-02-07T03:42:52.401Z,0
2019-02-07T03:43:52.149Z,0
2019-02-07T03:44:52.122Z,0
2019-02-07T03:46:04.694Z,0
2019-02-07T03:46:52.084Z,0
2019-02-07T03:47:52.314Z,0
2019-02-07T03:48:52.329Z,0
2019-02-07T03:49:53.651Z,0
2019-02-07T03:50:52.279Z,0
2019-02-07T03:51:52.274Z,0
2019-02-07T03:52:52.243Z,0
2019-02-07T03:53:52.240Z,0
2019-02-07T03:54:52.460Z,0
2019-02-07T03:55:52.545Z,0
2019-02-07T03:56:52.467Z,0
2019-02-07T03:57:52.817Z,0
2019-02-07T03:58:52.416Z,0
2019-02-07T03:59:52.155Z,0
2019-02-07T04:00:52.144Z,0
2019-02-07T04:01:51.885Z,0
2019-02-07T04:02:52.344Z,0
2019-02-07T04:03:52.089Z,0
2019-02-07T04:04:52.631Z,0
2019-02-07T04:05:52.201Z,0
2019-02-07T04:06:52.048Z,0
2019-02-07T04:07:52.282Z,0
2019-02-07T04:08:51.775Z,0
2019-02-07T04:09:52.014Z,0
2019-02-07T04:10:51.972Z,0
2019-02-07T04:11:52.048Z,0
2019-02-07T04:12:52.455Z,0
2019-02-07T04:13:51.956Z,0
2019-02-07T04:14:51.925Z,0
2019-02-07T04:15:51.916Z,0
2019-02-07T04:16:52.222Z,0
2019-02-07T04:17:51.906Z,0
2019-02-07T04:18:51.915Z,0
2019-02-07T04:19:51.635Z,0
2019-02-07T04:20:52.483Z,0
2019-02-07T04:21:52.111Z,0
2019-02-07T04:22:51.817Z,0
2019-02-07T04:23:51.816Z,0
2019-02-07T04:24:51.785Z,0
2019-02-07T04:25:51.790Z,0
2019-02-07T04:26:52.011Z,0
2019-02-07T04:27:52.001Z,0
2019-02-07T04:28:52.246Z,0
2019-02-07T04:29:51.468Z,0
2019-02-07T04:30:52.080Z,0
2019-02-07T04:31:51.693Z,0
2019-02-07T04:32:51.450Z,0
2019-02-07T04:33:51.932Z,0
2019-02-07T04:34:51.405Z,0
2019-02-07T04:35:51.666Z,0
2019-02-07T04:36:52.044Z,0
2019-02-07T04:37:51.620Z,0
2019-02-07T04:38:51.600Z,0
2019-02-07T04:39:51.838Z,0
2019-02-07T04:40:51.184Z,0
2019-02-07T04:41:51.546Z,0
2019-02-07T04:42:51.533Z,0
2019-02-07T04:43:51.770Z,0
2019-02-07T04:44:51.924Z,0
2019-02-07T04:45:50.994Z,0
2019-02-07T04:46:51.471Z,0
2019-02-07T04:47:51.463Z,0
2019-02-07T04:48:51.229Z,0
2019-02-07T04:49:51.447Z,0
2019-02-07T04:50:51.674Z,0
2019-02-07T04:51:51.769Z,0
2019-02-07T04:52:51.635Z,0
2019-02-07T04:53:51.377Z,0
2019-02-07T04:54:51.129Z,0
2019-02-07T04:55:51.775Z,0
2019-02-07T04:56:51.333Z,0
2019-02-07T04:57:51.331Z,0
2019-02-07T04:58:51.567Z,0
2019-02-07T04:59:52.183Z,0
2019-02-07T05:00:51.530Z,0
2019-02-07T05:01:51.033Z,0
2019-02-07T05:02:51.271Z,0
2019-02-07T05:03:51.502Z,0
2019-02-07T05:04:51.266Z,0
2019-02-07T05:05:51.207Z,0
2019-02-07T05:06:50.964Z,0
2019-02-07T05:07:51.764Z,0
2019-02-07T05:08:51.429Z,0
2019-02-07T05:09:50.915Z,0
2019-02-07T05:10:51.413Z,0
2019-02-07T05:11:50.891Z,0
2019-02-07T05:12:51.110Z,0
2019-02-07T05:13:51.120Z,0
2019-02-07T05:14:51.149Z,0
2019-02-07T05:15:51.344Z,0
2019-02-07T05:16:51.343Z,0
2019-02-07T05:17:50.794Z,0
2019-02-07T05:18:51.023Z,0
2019-02-07T05:19:51.042Z,0
2019-02-07T05:20:50.998Z,0
2019-02-07T05:21:51.004Z,0
2019-02-07T05:22:52.149Z,0
2019-02-07T05:23:50.713Z,0
2019-02-07T05:24:50.707Z,0
2019-02-07T05:25:50.971Z,0
2019-02-07T05:26:50.690Z,0
2019-02-07T05:27:51.167Z,0
2019-02-07T05:28:50.896Z,0
2019-02-07T05:29:51.071Z,0
2019-02-07T05:30:51.682Z,0
2019-02-07T05:31:50.916Z,0
2019-02-07T05:32:51.106Z,0
2019-02-07T05:33:50.573Z,0
2019-02-07T05:34:50.852Z,0
2019-02-07T05:35:50.335Z,0
2019-02-07T05:36:51.069Z,0
2019-02-07T05:37:54.519Z,0
2019-02-07T05:38:51.029Z,0
2019-02-07T05:39:51.008Z,0
2019-02-07T05:40:50.994Z,0
2019-02-07T05:41:50.610Z,0
2019-02-07T05:42:50.469Z,0
2019-02-07T05:43:53.110Z,0
2019-02-07T05:44:50.466Z,0
2019-02-07T05:45:51.717Z,0
2019-02-07T05:46:58.867Z,0
2019-02-07T05:47:50.663Z,0
2019-02-07T05:48:50.637Z,0
2019-02-07T05:49:50.897Z,0
2019-02-07T05:50:50.618Z,0
2019-02-07T05:51:50.080Z,0
2019-02-07T05:52:52.551Z,0
2019-02-07T05:53:51.166Z,0
2019-02-07T05:54:50.575Z,0
2019-02-07T05:55:50.535Z,0
2019-02-07T05:56:50.515Z,0
2019-02-07T05:57:50.757Z,0
2019-02-07T05:58:50.507Z,0
2019-02-07T05:59:50.733Z,0
2019-02-07T06:00:50.205Z,0
2019-02-07T06:01:51.153Z,0
2019-02-07T06:02:50.449Z,0
2019-02-07T06:03:49.930Z,0
2019-02-07T06:04:50.432Z,0
2019-02-07T06:05:50.655Z,0
2019-02-07T06:06:50.636Z,0
2019-02-07T06:07:50.776Z,0
2019-02-07T06:08:51.356Z,0
2019-02-07T06:09:54.143Z,0
2019-02-07T06:10:50.363Z,0
2019-02-07T06:11:50.087Z,0
2019-02-07T06:12:50.322Z,0
2019-02-07T06:13:50.186Z,4
2019-02-07T06:14:50.520Z,4
2019-02-07T06:15:50.394Z,0
2019-02-07T06:17:01.988Z,0
2019-02-07T06:17:50.250Z,4
2019-02-07T06:18:49.988Z,4
2019-02-07T06:19:49.989Z,4
2019-02-07T06:20:50.450Z,4
2019-02-07T06:21:52.558Z,4
2019-02-07T06:22:49.942Z,8
2019-02-07T06:23:49.781Z,4
2019-02-07T06:24:50.500Z,8
2019-02-07T06:25:50.411Z,8
2019-02-07T06:26:49.616Z,8
2019-02-07T06:27:50.347Z,12
2019-02-07T06:28:49.846Z,12
2019-02-07T06:29:50.327Z,16
2019-02-07T06:30:49.559Z,16
2019-02-07T06:31:50.373Z,20
2019-02-07T06:32:49.780Z,24
2019-02-07T06:33:50.041Z,24
2019-02-07T06:34:50.258Z,28
2019-02-07T06:35:50.013Z,36
2019-02-07T06:36:49.736Z,44
2019-02-07T06:37:50.255Z,48
2019-02-07T06:38:50.219Z,56
2019-02-07T06:39:50.803Z,64
2019-02-07T06:40:50.220Z,72
2019-02-07T06:41:49.927Z,84
2019-02-07T06:42:49.913Z,96
2019-02-07T06:43:49.404Z,104
2019-02-07T06:44:50.161Z,108
2019-02-07T06:45:49.871Z,108
2019-02-07T06:46:49.626Z,108
2019-02-07T06:47:50.299Z,108
2019-02-07T06:48:49.599Z,112
2019-02-07T06:49:49.834Z,116
2019-02-07T06:50:50.043Z,124
2019-02-07T06:51:49.545Z,128
2019-02-07T06:52:50.072Z,136
2019-02-07T06:53:49.762Z,144
2019-02-07T06:54:49.663Z,156
2019-02-07T06:55:50.418Z,168
2019-02-07T06:56:49.726Z,180
2019-02-07T06:57:49.471Z,192
2019-02-07T06:58:49.685Z,204
2019-02-07T06:59:49.958Z,224
2019-02-07T07:00:49.690Z,240
2019-02-07T07:01:49.661Z,256
2019-02-07T07:02:50.099Z,280
2019-02-07T07:03:49.943Z,300
2019-02-07T07:04:49.429Z,324
2019-02-07T07:05:49.364Z,348
2019-02-07T07:06:49.335Z,368
2019-02-07T07:07:49.578Z,392
2019-02-07T07:08:49.579Z,416
2019-02-07T07:09:49.313Z,444
2019-02-07T07:10:49.522Z,472
2019-02-07T07:11:49.691Z,504
2019-02-07T07:12:49.125Z,536
2019-02-07T07:13:49.515Z,568
2019-02-07T07:14:49.244Z,596
2019-02-07T07:15:49.732Z,628
2019-02-07T07:16:49.231Z,660
2019-02-07T07:17:49.498Z,680
2019-02-07T07:18:49.915Z,704
2019-02-07T07:19:49.772Z,728
2019-02-07T07:20:49.675Z,756
2019-02-07T07:21:49.427Z,780
2019-02-07T07:22:49.398Z,800
2019-02-07T07:23:49.383Z,820
2019-02-07T07:24:49.346Z,844
2019-02-07T07:25:49.605Z,864
2019-02-07T07:26:49.756Z,880
2019-02-07T07:27:49.089Z,900
2019-02-07T07:28:49.345Z,928
2019-02-07T07:29:49.070Z,952
2019-02-07T07:30:49.320Z,980
2019-02-07T07:31:49.582Z,1008
2019-02-07T07:32:49.333Z,1036
2019-02-07T07:33:49.252Z,1072
2019-02-07T07:34:49.963Z,1116
2019-02-07T07:35:49.484Z,1152
2019-02-07T07:36:49.220Z,1200
2019-02-07T07:37:49.455Z,1244
2019-02-07T07:38:49.441Z,1292
2019-02-07T07:39:48.940Z,1340
2019-02-07T07:40:49.396Z,1392
2019-02-07T07:41:49.428Z,1452
2019-02-07T07:42:49.757Z,1500
2019-02-07T07:43:49.142Z,1552
2019-02-07T07:44:49.392Z,1592
2019-02-07T07:45:49.095Z,1620
2019-02-07T07:46:49.353Z,1648
2019-02-07T07:47:49.130Z,1672
2019-02-07T07:48:49.105Z,1696
2019-02-07T07:49:49.044Z,1708
2019-02-07T07:50:49.348Z,1744
2019-02-07T07:51:49.277Z,1776
2019-02-07T07:52:49.271Z,1820
2019-02-07T07:53:49.006Z,1860
2019-02-07T07:54:48.996Z,1908
2019-02-07T07:55:49.247Z,1956
2019-02-07T07:56:49.008Z,2000
2019-02-07T07:57:49.104Z,2028
2019-02-07T07:58:49.022Z,2032
2019-02-07T07:59:48.677Z,2000
2019-02-07T08:00:48.909Z,1956
2019-02-07T08:01:49.147Z,1892
2019-02-07T08:02:48.919Z,1820
2019-02-07T08:03:49.167Z,1752
2019-02-07T08:04:48.628Z,1692
2019-02-07T08:05:49.630Z,1636
2019-02-07T08:06:48.602Z,1596
2019-02-07T08:07:49.112Z,1568
2019-02-07T08:08:48.569Z,1548
2019-02-07T08:09:49.084Z,1528
2019-02-07T08:10:48.553Z,1520
2019-02-07T08:11:48.524Z,1528
2019-02-07T08:12:49.009Z,1548
2019-02-07T08:13:49.723Z,1576
2019-02-07T08:14:48.737Z,1608
2019-02-07T08:15:48.967Z,1644
2019-02-07T08:16:48.722Z,1672
2019-02-07T08:17:54.551Z,1716
2019-02-07T08:18:48.926Z,1748
2019-02-07T08:19:48.688Z,1796
2019-02-07T08:20:48.669Z,1848
2019-02-07T08:21:49.364Z,1904
2019-02-07T08:22:48.885Z,1956
2019-02-07T08:23:48.862Z,2016
2019-02-07T08:24:48.608Z,2072
2019-02-07T08:25:48.617Z,2128
2019-02-07T08:26:48.353Z,2164
2019-02-07T08:27:48.844Z,2184
2019-02-07T08:28:48.729Z,2216
2019-02-07T08:29:49.245Z,2268
2019-02-07T08:30:48.566Z,2316
2019-02-07T08:31:49.603Z,2360
2019-02-07T08:32:48.532Z,2384
2019-02-07T08:33:48.771Z,2380
2019-02-07T08:34:48.522Z,2364
2019-02-07T08:35:48.780Z,2364
2019-02-07T08:36:48.350Z,2380
2019-02-07T08:37:48.830Z,2400
2019-02-07T08:38:49.928Z,2408
2019-02-07T08:39:48.460Z,2448
2019-02-07T08:40:48.692Z,2492
2019-02-07T08:41:48.692Z,2520
2019-02-07T08:42:48.429Z,2552
2019-02-07T08:43:48.412Z,2596
2019-02-07T08:44:48.942Z,2640
2019-02-07T08:45:47.929Z,2668
2019-02-07T08:46:48.717Z,2708
2019-02-07T08:47:58.318Z,2728
2019-02-07T08:48:48.106Z,2728
2019-02-07T08:49:48.747Z,2740
2019-02-07T08:50:48.490Z,2712
2019-02-07T08:51:48.610Z,2668
2019-02-07T08:52:49.195Z,2664
2019-02-07T08:53:48.317Z,2632
2019-02-07T08:54:48.541Z,2600
2019-02-07T08:55:48.286Z,2592
2019-02-07T08:56:47.998Z,2580
2019-02-07T08:57:48.540Z,2584
2019-02-07T08:58:48.262Z,2560
2019-02-07T08:59:48.223Z,2536
2019-02-07T09:00:49.158Z,2508
2019-02-07T09:01:48.203Z,2492
2019-02-07T09:02:58.394Z,2476
2019-02-07T09:03:48.170Z,2472
2019-02-07T09:04:48.412Z,2448
2019-02-07T09:05:47.925Z,2428
2019-02-07T09:06:48.371Z,2452
2019-02-07T09:07:48.670Z,2508
2019-02-07T09:08:48.676Z,2640
2019-02-07T09:09:48.359Z,2772
2019-02-07T09:10:47.844Z,2860
2019-02-07T09:11:48.319Z,2936
2019-02-07T09:12:48.314Z,2992
2019-02-07T09:13:47.808Z,3012
2019-02-07T09:14:48.045Z,3012
2019-02-07T09:15:48.263Z,3020
2019-02-07T09:16:48.694Z,3060
2019-02-07T09:17:48.031Z,3088
2019-02-07T09:18:48.369Z,3088
2019-02-07T09:19:48.256Z,3056
2019-02-07T09:20:47.754Z,3052
2019-02-07T09:21:47.737Z,3064
2019-02-07T09:22:47.492Z,3028
2019-02-07T09:23:48.485Z,2964
2019-02-07T09:24:47.960Z,2880
2019-02-07T09:25:47.432Z,2804
2019-02-07T09:26:47.947Z,2772
2019-02-07T09:27:48.148Z,2768
2019-02-07T09:28:48.175Z,2748
2019-02-07T09:29:47.876Z,2740
2019-02-07T09:30:48.133Z,2736
2019-02-07T09:31:48.719Z,2784
2019-02-07T09:32:48.234Z,2872
2019-02-07T09:33:47.840Z,2972
2019-02-07T09:34:48.092Z,3052
2019-02-07T09:35:48.096Z,3140
2019-02-07T09:36:48.099Z,3192
2019-02-07T09:37:47.318Z,3200
2019-02-07T09:38:48.097Z,3192
2019-02-07T09:39:48.187Z,3196
2019-02-07T09:40:47.537Z,3204
2019-02-07T09:41:47.782Z,3220
2019-02-07T09:42:48.016Z,3256
2019-02-07T09:43:47.495Z,3384
2019-02-07T09:44:47.513Z,3552
2019-02-07T09:45:48.040Z,3668
2019-02-07T09:46:48.033Z,3808
2019-02-07T09:47:47.586Z,4012
2019-02-07T09:48:47.972Z,4204
2019-02-07T09:49:47.426Z,4280
2019-02-07T09:50:47.909Z,4252
2019-02-07T09:51:47.922Z,4164
2019-02-07T09:52:47.908Z,4088
2019-02-07T09:53:47.431Z,4060
2019-02-07T09:54:48.414Z,4012
2019-02-07T09:55:47.395Z,3920
2019-02-07T09:56:47.599Z,3776
2019-02-07T09:57:47.338Z,3608
2019-02-07T09:58:47.852Z,3500
2019-02-07T09:59:47.831Z,3508
2019-02-07T10:00:47.562Z,3576
2019-02-07T10:01:47.540Z,3648
2019-02-07T10:02:48.855Z,3644
2019-02-07T10:03:47.663Z,3612
2019-02-07T10:04:47.516Z,3580
2019-02-07T10:05:47.244Z,3480
2019-02-07T10:06:47.244Z,3300
2019-02-07T10:07:47.482Z,3144
2019-02-07T10:08:47.717Z,3048
2019-02-07T10:09:47.592Z,2980
2019-02-07T10:10:47.614Z,2932
2019-02-07T10:11:47.216Z,2892
2019-02-07T10:12:48.270Z,2892
2019-02-07T10:13:47.456Z,2920
2019-02-07T10:14:47.660Z,2916
2019-02-07T10:15:47.443Z,2844
2019-02-07T10:16:47.422Z,2720
2019-02-07T10:17:47.925Z,2588
2019-02-07T10:18:46.897Z,2540
2019-02-07T10:19:47.378Z,2500
2019-02-07T10:20:47.354Z,2368
2019-02-07T10:21:47.337Z,2204
2019-02-07T10:22:47.573Z,2072
2019-02-07T10:23:47.119Z,2016
2019-02-07T10:24:47.319Z,2000
2019-02-07T10:25:47.998Z,1972
2019-02-07T10:26:47.047Z,1932
2019-02-07T10:27:46.780Z,1860
2019-02-07T10:28:47.252Z,1760
2019-02-07T10:29:47.265Z,1648
2019-02-07T10:30:47.493Z,1560
2019-02-07T10:31:47.018Z,1504
2019-02-07T10:32:47.233Z,1476
2019-02-07T10:33:47.951Z,1468
2019-02-07T10:34:46.970Z,1452
2019-02-07T10:35:47.221Z,1432
2019-02-07T10:36:46.930Z,1416
2019-02-07T10:37:46.922Z,1432
2019-02-07T10:38:47.411Z,1472
2019-02-07T10:39:47.404Z,1508
2019-02-07T10:40:47.115Z,1528
2019-02-07T10:41:47.455Z,1528
2019-02-07T10:42:46.876Z,1532
2019-02-07T10:43:47.112Z,1528
2019-02-07T10:44:47.363Z,1552
2019-02-07T10:45:47.107Z,1568
2019-02-07T10:46:47.306Z,1544
2019-02-07T10:47:47.065Z,1552
2019-02-07T10:48:51.860Z,1588
2019-02-07T10:49:58.545Z,1620
2019-02-07T10:50:46.819Z,1664
2019-02-07T10:51:47.271Z,1696
2019-02-07T10:52:47.263Z,1712
2019-02-07T10:53:46.984Z,1748
2019-02-07T10:54:46.754Z,1776
2019-02-07T10:55:46.972Z,1768
2019-02-07T10:56:47.882Z,1728
2019-02-07T10:57:46.740Z,1692
2019-02-07T10:58:46.694Z,1672
2019-02-07T10:59:46.679Z,1624
2019-02-07T11:00:46.704Z,1540
2019-02-07T11:01:46.929Z,1472
2019-02-07T11:02:46.891Z,1448
2019-02-07T11:03:46.869Z,1448
2019-02-07T11:04:46.942Z,1480
2019-02-07T11:05:47.160Z,1524
2019-02-07T11:06:46.948Z,1532
2019-02-07T11:07:46.615Z,1532
2019-02-07T11:08:46.461Z,1512
2019-02-07T11:09:46.587Z,1520
2019-02-07T11:10:47.060Z,1560
2019-02-07T11:11:46.839Z,1596
2019-02-07T11:12:47.486Z,1624
2019-02-07T11:13:47.056Z,1664
2019-02-07T11:14:46.769Z,1728
2019-02-07T11:15:47.034Z,1776
2019-02-07T11:16:47.072Z,1820
2019-02-07T11:17:46.998Z,1884
2019-02-07T11:18:57.725Z,2056
2019-02-07T11:19:46.732Z,2212
2019-02-07T11:20:47.056Z,2392
2019-02-07T11:21:46.444Z,2480
2019-02-07T11:22:46.965Z,2468
2019-02-07T11:23:46.755Z,2416
2019-02-07T11:24:46.411Z,2424
2019-02-07T11:25:46.854Z,2584
2019-02-07T11:26:46.413Z,2896
2019-02-07T11:27:49.441Z,3264
2019-02-07T11:28:46.948Z,3464
2019-02-07T11:29:46.576Z,3568
2019-02-07T11:30:46.327Z,3596
2019-02-07T11:31:46.645Z,3520
2019-02-07T11:32:46.826Z,3432
2019-02-07T11:33:46.585Z,3404
2019-02-07T11:34:48.486Z,3356
2019-02-07T11:35:46.795Z,3264
2019-02-07T11:36:56.533Z,3144
2019-02-07T11:37:46.298Z,3072
2019-02-07T11:38:46.495Z,3036
2019-02-07T11:39:46.512Z,3020
2019-02-07T11:40:48.514Z,3004
2019-02-07T11:41:46.485Z,2996
2019-02-07T11:42:46.743Z,3004
2019-02-07T11:43:47.226Z,3000
2019-02-07T11:44:46.205Z,3012
2019-02-07T11:45:46.740Z,2988
2019-02-07T11:46:48.771Z,2908
2019-02-07T11:47:46.683Z,2784
2019-02-07T11:48:46.404Z,2696
2019-02-07T11:49:46.654Z,2652
2019-02-07T11:50:46.368Z,2624
2019-02-07T11:51:47.071Z,2600
2019-02-07T11:52:46.363Z,2600
2019-02-07T11:53:46.342Z,2608
2019-02-07T11:54:46.572Z,2560
2019-02-07T11:55:46.559Z,2540
2019-02-07T11:56:46.204Z,2500
2019-02-07T11:57:46.316Z,2424
2019-02-07T11:58:46.543Z,2372
2019-02-07T11:59:47.005Z,2368
2019-02-07T12:00:46.605Z,2340
2019-02-07T12:01:45.787Z,2232
2019-02-07T12:02:45.876Z,2144
2019-02-07T12:03:46.505Z,2120
2019-02-07T12:04:45.752Z,2152
2019-02-07T12:05:46.014Z,2148
2019-02-07T12:06:46.349Z,2092
2019-02-07T12:07:46.579Z,2080
2019-02-07T12:08:45.938Z,2124
2019-02-07T12:09:46.428Z,2240
2019-02-07T12:10:47.605Z,2280
2019-02-07T12:11:48.398Z,2220
2019-02-07T12:12:46.168Z,2232
2019-02-07T12:13:45.909Z,2272
2019-02-07T12:14:46.370Z,2368
2019-02-07T12:15:46.342Z,2524
2019-02-07T12:16:46.342Z,2744
2019-02-07T12:17:46.761Z,2984
2019-02-07T12:18:45.829Z,3232
2019-02-07T12:19:45.857Z,3436
2019-02-07T12:20:45.803Z,3480
2019-02-07T12:21:46.050Z,3376
2019-02-07T12:22:46.841Z,3288
2019-02-07T12:23:46.022Z,3300
2019-02-07T12:24:46.010Z,3400
2019-02-07T12:25:46.269Z,3512
2019-02-07T12:26:45.992Z,3664
2019-02-07T12:27:45.907Z,3824
2019-02-07T12:28:45.977Z,3992
2019-02-07T12:29:45.710Z,4228
2019-02-07T12:30:46.786Z,4512
2019-02-07T12:31:45.689Z,4792
2019-02-07T12:32:46.209Z,5036
2019-02-07T12:33:45.675Z,5100
2019-02-07T12:34:46.170Z,5036
2019-02-07T12:35:45.648Z,4856
2019-02-07T12:36:45.652Z,4528
2019-02-07T12:37:46.304Z,4064
2019-02-07T12:38:45.774Z,3660
2019-02-07T12:39:45.923Z,3424
2019-02-07T12:40:46.102Z,3292
2019-02-07T12:41:46.095Z,3380
2019-02-07T12:42:45.994Z,3160
2019-02-07T12:43:45.576Z,2680
2019-02-07T12:44:46.605Z,2628
2019-02-07T12:45:45.735Z,2948
2019-02-07T12:46:46.099Z,3412
2019-02-07T12:47:45.790Z,3804
2019-02-07T12:48:46.010Z,4012
2019-02-07T12:49:45.794Z,4020
2019-02-07T12:50:45.996Z,3912
2019-02-07T12:51:46.043Z,3752
2019-02-07T12:52:46.518Z,3612
2019-02-07T12:53:45.944Z,3416
2019-02-07T12:54:46.029Z,3092
2019-02-07T12:55:56.937Z,2780
2019-02-07T12:56:45.460Z,2800
2019-02-07T12:57:45.454Z,2916
2019-02-07T12:58:45.717Z,3016
2019-02-07T12:59:45.442Z,3168
2019-02-07T13:00:45.418Z,3284
2019-02-07T13:01:46.221Z,3264
2019-02-07T13:02:45.162Z,3180
2019-02-07T13:03:45.633Z,3348
2019-02-07T13:04:45.383Z,3620
2019-02-07T13:05:45.389Z,3876
2019-02-07T13:06:45.857Z,4116
2019-02-07T13:07:45.935Z,4268
2019-02-07T13:08:45.836Z,4276
2019-02-07T13:09:46.639Z,4192
2019-02-07T13:10:45.374Z,4108
2019-02-07T13:11:45.620Z,3976
2019-02-07T13:12:45.640Z,3880
2019-02-07T13:13:45.387Z,3812
2019-02-07T13:14:45.349Z,3752
2019-02-07T13:15:45.860Z,3648
2019-02-07T13:16:45.271Z,3576
2019-02-07T13:17:46.270Z,3576
2019-02-07T13:18:45.607Z,3584
2019-02-07T13:19:47.863Z,3552
2019-02-07T13:20:45.801Z,3548
2019-02-07T13:21:45.534Z,3688
2019-02-07T13:22:45.533Z,3916
2019-02-07T13:23:45.592Z,4280
2019-02-07T13:24:45.624Z,4840
2019-02-07T13:25:46.057Z,5468
2019-02-07T13:26:45.356Z,5596
2019-02-07T13:27:45.457Z,5240
2019-02-07T13:28:45.460Z,4844
2019-02-07T13:29:45.457Z,4520
2019-02-07T13:30:45.801Z,4288
2019-02-07T13:31:45.268Z,4144
2019-02-07T13:32:46.029Z,4124
2019-02-07T13:33:45.955Z,4128
2019-02-07T13:34:45.448Z,4116
2019-02-07T13:35:45.436Z,4160
2019-02-07T13:36:45.802Z,4180
2019-02-07T13:37:45.661Z,4180
2019-02-07T13:38:45.450Z,4240
2019-02-07T13:39:45.630Z,4300
2019-02-07T13:40:45.572Z,4392
2019-02-07T13:41:45.323Z,4552
2019-02-07T13:42:45.311Z,4592
2019-02-07T13:43:45.276Z,4600
2019-02-07T13:44:45.269Z,4476
2019-02-07T13:45:45.277Z,4336
2019-02-07T13:46:45.263Z,4228
2019-02-07T13:47:45.250Z,4116
2019-02-07T13:48:45.980Z,4020
2019-02-07T13:49:56.177Z,3952
2019-02-07T13:50:44.984Z,3932
2019-02-07T13:51:45.244Z,3900
2019-02-07T13:52:45.461Z,3864
2019-02-07T13:53:45.444Z,3808
2019-02-07T13:54:44.924Z,3708
2019-02-07T13:55:45.186Z,3672
2019-02-07T13:56:46.158Z,3688
2019-02-07T13:57:45.397Z,3692
2019-02-07T13:58:45.397Z,3680
2019-02-07T13:59:45.586Z,3632